Time;durP1;ratioP1;P1;durP2;ratioP2;P2;SDS_P1;SDS_P2;PMS_P1;PMS_P2;Temp;Humidity;BMP_temperature;BMP_pressure;BME280_temperature;BME280_humidity;BME280_pressure;Samples;Min_cycle;Max_cycle;Signal;HPM_P1;HPM_P2
2022/09/07 00:01:18;;;;;;;6.50;4.10;;;;;;;18.22;100.00;101347.72;2615351;36;20093;-49
2022/09/07 00:03:47;;;;;;;8.65;4.00;;;;;;;18.21;100.00;101352.34;2616140;36;20085;-49
2022/09/07 00:06:16;;;;;;;8.18;3.63;;;;;;;18.35;100.00;101358.09;2615266;36;20027;-50
2022/09/07 00:08:45;;;;;;;6.07;3.60;;;;;;;18.20;100.00;101356.06;2615574;36;20034;-50
2022/09/07 00:11:15;;;;;;;8.40;4.45;;;;;;;18.08;100.00;101341.13;2615706;36;20586;-50
2022/09/07 00:13:48;;;;;;;5.22;3.70;;;;;;;18.09;100.00;101326.47;2615709;36;20039;-49
2022/09/07 00:16:18;;;;;;;7.85;3.25;;;;;;;17.90;100.00;101319.53;2616098;31;20034;-49
2022/09/07 00:18:46;;;;;;;10.93;4.00;;;;;;;17.86;100.00;101299.13;2615203;36;20668;-48
2022/09/07 00:21:17;;;;;;;8.07;3.50;;;;;;;17.79;100.00;101289.94;2615696;36;20051;-53
2022/09/07 00:23:46;;;;;;;7.32;3.70;;;;;;;17.73;100.00;101283.31;2614127;36;20038;-52
2022/09/07 00:26:15;;;;;;;;;;;;;;;17.65;100.00;101280.59;2615724;36;20543;-50
2022/09/07 00:28:47;;;;;;;9.18;3.65;;;;;;;17.67;100.00;101281.28;2615899;36;19989;-54
2022/09/07 00:31:17;;;;;;;9.38;3.63;;;;;;;17.64;100.00;101281.63;2615928;36;20555;-52
2022/09/07 00:33:47;;;;;;;5.63;2.85;;;;;;;17.74;100.00;101286.88;2615595;36;20423;-54
2022/09/07 00:36:15;;;;;;;5.35;2.58;;;;;;;17.53;100.00;101288.25;2615449;36;20022;-50
2022/09/07 00:38:44;;;;;;;4.28;2.70;;;;;;;17.53;100.00;101285.53;2615057;31;20031;-50
2022/09/07 00:41:13;;;;;;;7.28;2.75;;;;;;;17.52;100.00;101287.41;2615481;36;20043;-53
2022/09/07 00:43:47;;;;;;;7.65;2.75;;;;;;;17.59;100.00;101284.84;2615741;36;20034;-51
2022/09/07 00:46:17;;;;;;;5.30;2.65;;;;;;;17.69;100.00;101290.94;2616044;36;20018;-50
2022/09/07 00:48:52;;;;;;;7.75;2.90;;;;;;;17.82;100.00;101284.13;2615256;36;20055;-50
2022/09/07 00:51:26;;;;;;;5.15;2.95;;;;;;;17.90;100.00;101288.75;2615866;36;20050;-55
2022/09/07 00:53:59;;;;;;;5.47;2.47;;;;;;;17.84;100.00;101279.34;2615442;36;20034;-54
2022/09/07 00:56:33;;;;;;;5.95;2.90;;;;;;;17.96;100.00;101277.16;2615371;36;20030;-50
2022/09/07 00:59:04;;;;;;;6.22;2.70;;;;;;;17.97;100.00;101287.88;2615697;36;20023;-53
2022/09/07 01:01:33;;;;;;;3.80;2.95;;;;;;;18.11;100.00;101288.16;2615884;31;20085;-53
2022/09/07 01:04:03;;;;;;;5.90;3.33;;;;;;;18.10;100.00;101273.69;2615336;36;20061;-52
2022/09/07 01:06:35;;;;;;;5.60;3.40;;;;;;;18.10;100.00;101273.69;2615814;36;20611;-53
2022/09/07 01:09:08;;;;;;;5.45;2.75;;;;;;;17.98;100.00;101280.56;2616241;36;20427;-54
2022/09/07 01:11:38;;;;;;;5.38;2.90;;;;;;;18.06;100.00;101266.91;2615513;31;20038;-51
2022/09/07 01:14:11;;;;;;;5.68;3.13;;;;;;;18.08;100.00;101264.88;2616072;31;20477;-50
2022/09/07 01:16:54;;;;;;;8.20;3.35;;;;;;;18.07;100.00;101263.16;2615885;36;20068;-54
2022/09/07 01:20:04;;;;;;;7.57;2.97;;;;;;;18.18;100.00;101259.19;2615512;36;20034;-55
2022/09/07 01:23:01;;;;;;;4.35;2.83;;;;;;;18.16;100.00;101255.81;2614548;31;20034;-49
2022/09/07 01:25:42;;;;;;;6.32;3.00;;;;;;;18.19;100.00;101264.47;2615317;31;20547;-57
2022/09/07 01:28:21;;;;;;;5.28;3.03;;;;;;;18.16;100.00;101264.81;2615589;36;20034;-51
2022/09/07 01:30:56;;;;;;;6.70;3.15;;;;;;;18.17;100.00;101271.13;2615830;31;20053;-56
2022/09/07 01:33:40;;;;;;;5.80;3.20;;;;;;;18.19;100.00;101269.91;2615097;36;20153;-54
2022/09/07 01:36:20;;;;;;;5.18;2.72;;;;;;;18.24;100.00;101287.59;2615336;36;20041;-55
2022/09/07 01:38:51;;;;;;;8.35;2.97;;;;;;;18.37;100.00;101285.16;2614593;36;20121;-55
2022/09/07 01:41:26;;;;;;;6.55;2.67;;;;;;;18.43;100.00;101284.44;2615370;36;20042;-52
2022/09/07 01:44:05;;;;;;;3.72;2.78;;;;;;;18.46;100.00;101280.53;2615375;36;20034;-53
2022/09/07 01:46:37;;;;;;;5.53;2.65;;;;;;;18.50;100.00;101296.34;2615612;36;20035;-54
2022/09/07 01:49:11;;;;;;;5.13;2.28;;;;;;;18.52;100.00;101288.00;2614535;36;20034;-51
2022/09/07 01:51:45;;;;;;;5.82;2.42;;;;;;;18.48;100.00;101289.41;2615686;31;20041;-54
2022/09/07 01:54:23;;;;;;;4.15;1.90;;;;;;;18.41;100.00;101291.13;2614972;36;20095;-50
2022/09/07 01:56:56;;;;;;;6.35;2.70;;;;;;;18.43;100.00;101289.91;2615742;36;20045;-53
2022/09/07 01:59:32;;;;;;;5.57;2.38;;;;;;;18.44;100.00;101297.06;2615783;36;20415;-52
2022/09/07 02:02:08;;;;;;;3.67;2.33;;;;;;;18.38;100.00;101293.16;2616096;36;20039;-49
2022/09/07 02:04:41;;;;;;;4.07;2.20;;;;;;;18.40;100.00;101295.72;2614768;36;20034;-50
2022/09/07 02:07:16;;;;;;;4.32;1.80;;;;;;;18.42;100.00;101299.13;2615718;36;20042;-49
2022/09/07 02:09:50;;;;;;;4.07;2.17;;;;;;;18.27;100.00;101289.97;2615707;36;20030;-53
2022/09/07 02:12:26;;;;;;;4.40;1.77;;;;;;;18.38;100.00;101285.00;2614903;36;20051;-52
2022/09/07 02:15:00;;;;;;;6.93;1.85;;;;;;;18.23;100.00;101277.72;2615287;36;20645;-50
2022/09/07 02:17:34;;;;;;;3.58;1.92;;;;;;;18.16;100.00;101256.66;2615198;31;20065;-51
2022/09/07 02:20:09;;;;;;;4.03;1.40;;;;;;;17.99;100.00;101239.53;2615284;36;20752;-51
2022/09/07 02:22:42;;;;;;;5.78;1.58;;;;;;;17.91;100.00;101208.75;2615617;36;20077;-54
2022/09/07 02:25:14;;;;;;;3.55;1.30;;;;;;;17.95;100.00;101199.22;2615108;36;20045;-52
2022/09/07 02:27:47;;;;;;;3.00;1.58;;;;;;;17.96;100.00;101207.22;2615588;31;20061;-51
2022/09/07 02:30:18;;;;;;;3.28;1.38;;;;;;;17.76;100.00;101204.00;2615334;36;20058;-49
2022/09/07 02:32:46;;;;;;;2.97;1.42;;;;;;;17.67;100.00;101208.63;2614852;36;20073;-50
2022/09/07 02:35:15;;;;;;;2.85;1.00;;;;;;;17.64;100.00;101197.25;2615102;36;20031;-50
2022/09/07 02:37:45;;;;;;;3.25;1.17;;;;;;;17.68;100.00;101194.00;2615487;36;20428;-52
2022/09/07 02:40:14;;;;;;;1.50;1.10;;;;;;;17.79;100.00;101195.47;2613904;36;20061;-51
2022/09/07 02:42:44;;;;;;;2.28;1.17;;;;;;;17.80;100.00;101191.75;2614861;36;20122;-48
2022/09/07 02:45:15;;;;;;;2.17;1.30;;;;;;;17.85;100.00;101204.81;2616205;36;20546;-50
2022/09/07 02:48:07;;;;;;;2.35;1.30;;;;;;;17.84;100.00;101203.13;2614811;31;20023;-51
2022/09/07 02:50:49;;;;;;;1.40;1.00;;;;;;;17.93;100.00;101198.53;2614880;36;20059;-50
2022/09/07 02:53:40;;;;;;;3.10;1.70;;;;;;;17.86;100.00;101199.19;2614716;36;20035;-50
2022/09/07 02:56:20;;;;;;;2.80;1.23;;;;;;;17.82;100.00;101194.28;2615293;31;20043;-51
2022/09/07 02:59:02;;;;;;;2.00;1.50;;;;;;;17.78;100.00;101187.50;2615523;36;20058;-49
2022/09/07 03:01:41;;;;;;;1.70;1.13;;;;;;;17.85;100.00;101181.16;2616500;31;20407;-49
2022/09/07 03:04:17;;;;;;;2.00;1.20;;;;;;;17.84;100.00;101186.78;2615047;36;20046;-49
2022/09/07 03:06:50;;;;;;;2.35;1.60;;;;;;;17.82;100.00;101195.13;2616039;36;20073;-49
2022/09/07 03:09:22;;;;;;;2.97;1.30;;;;;;;17.85;100.00;101194.78;2615556;36;20057;-50
2022/09/07 03:11:51;;;;;;;1.98;1.30;;;;;;;17.83;100.00;101196.84;2615840;36;20022;-48
2022/09/07 03:14:22;;;;;;;1.85;1.38;;;;;;;17.81;100.00;101198.88;2616280;36;20522;-47
2022/09/07 03:16:51;;;;;;;3.08;1.33;;;;;;;17.82;100.00;101197.84;2616473;36;20026;-49
2022/09/07 03:19:22;;;;;;;1.80;1.20;;;;;;;17.83;100.00;101199.56;2614968;31;20057;-51
2022/09/07 03:21:51;;;;;;;4.07;1.30;;;;;;;17.81;100.00;101193.41;2616083;36;20022;-49
2022/09/07 03:24:19;;;;;;;4.00;1.30;;;;;;;17.93;100.00;101185.78;2615853;31;20049;-50
2022/09/07 03:26:50;;;;;;;1.88;1.20;;;;;;;17.90;100.00;101177.94;2616233;36;20558;-47
2022/09/07 03:29:18;;;;;;;2.63;1.20;;;;;;;17.87;100.00;101183.69;2615974;36;20045;-50
2022/09/07 03:31:47;;;;;;;2.63;1.47;;;;;;;17.84;100.00;101187.66;2616295;36;20042;-48
2022/09/07 03:34:16;;;;;;;2.35;1.20;;;;;;;17.86;100.00;101182.88;2614125;31;20304;-49
2022/09/07 03:36:47;;;;;;;2.58;1.17;;;;;;;17.85;100.00;101178.44;2615610;31;20057;-52
2022/09/07 03:39:15;;;;;;;1.80;1.30;;;;;;;17.86;100.00;101179.31;2615266;36;20030;-49
2022/09/07 03:41:43;;;;;;;2.77;1.30;;;;;;;17.77;100.00;101181.22;2615631;36;20038;-50
2022/09/07 03:44:12;;;;;;;1.97;1.40;;;;;;;17.81;100.00;101176.25;2615673;36;20304;-52
2022/09/07 03:46:40;;;;;;;2.05;1.40;;;;;;;17.78;100.00;101177.44;2616138;36;20038;-52
2022/09/07 03:49:08;;;;;;;4.13;1.57;;;;;;;17.76;100.00;101171.34;2615559;36;20061;-51
2022/09/07 03:51:37;;;;;;;4.03;2.20;;;;;;;17.82;100.00;101159.72;2615868;36;20303;-50
2022/09/07 03:54:08;;;;;;;2.23;1.43;;;;;;;17.83;100.00;101168.78;2615746;36;20536;-48
2022/09/07 03:56:36;;;;;;;2.03;1.60;;;;;;;17.83;100.00;101175.06;2616024;36;20318;-51
2022/09/07 03:59:05;;;;;;;4.35;2.10;;;;;;;17.85;100.00;101181.16;2615706;36;20050;-51
2022/09/07 04:01:34;;;;;;;4.93;1.95;;;;;;;17.86;100.00;101185.59;2614630;36;20142;-50
2022/09/07 04:04:03;;;;;;;4.32;2.10;;;;;;;17.81;100.00;101182.53;2614268;36;21724;-49
2022/09/07 04:06:31;;;;;;;;;;;;;;;17.85;100.00;101173.00;2616121;36;20049;-50
2022/09/07 04:09:03;;;;;;;3.03;1.58;;;;;;;17.97;100.00;101164.47;2616119;36;20374;-49
2022/09/07 04:11:34;;;;;;;2.55;1.42;;;;;;;17.91;100.00;101154.28;2615266;36;20050;-51
2022/09/07 04:14:02;;;;;;;3.53;1.70;;;;;;;17.96;100.00;101143.69;2616088;36;20042;-50
2022/09/07 04:16:31;;;;;;;3.50;1.70;;;;;;;17.97;100.00;101131.78;2616837;36;20434;-48
2022/09/07 04:19:00;;;;;;;2.72;1.65;;;;;;;18.01;100.00;101123.09;2615640;36;20280;-49
2022/09/07 04:21:31;;;;;;;2.87;1.60;;;;;;;18.07;100.00;101115.25;2615966;31;20041;-49
2022/09/07 04:24:00;;;;;;;2.90;1.95;;;;;;;18.14;100.00;101125.22;2614710;36;20037;-48
2022/09/07 04:26:30;;;;;;;;;;;;;;;18.12;100.00;101124.53;2615618;36;20039;-51
2022/09/07 04:29:02;;;;;;;4.05;2.40;;;;;;;18.07;100.00;101126.13;2616041;31;19970;-50
2022/09/07 04:31:31;;;;;;;4.15;1.88;;;;;;;18.13;100.00;101128.97;2615520;36;20034;-49
2022/09/07 04:34:00;;;;;;;3.45;2.00;;;;;;;18.09;100.00;101122.19;2632526;36;20030;-49
2022/09/07 04:36:28;;;;;;;3.07;1.90;;;;;;;18.04;100.00;101127.31;2615873;36;20042;-52
2022/09/07 04:38:58;;;;;;;4.28;2.25;;;;;;;18.04;100.00;101133.63;2615306;36;20598;-51
2022/09/07 04:41:27;;;;;;;2.45;1.90;;;;;;;18.03;100.00;101136.50;2614489;36;20023;-49
2022/09/07 04:43:57;;;;;;;3.90;2.42;;;;;;;17.82;100.00;101142.56;2616076;31;20039;-50
2022/09/07 04:46:29;;;;;;;3.95;2.40;;;;;;;17.73;100.00;101139.00;2615272;36;20035;-51
2022/09/07 04:48:59;;;;;;;4.82;2.40;;;;;;;17.72;100.00;101156.38;2615996;36;20478;-48
2022/09/07 04:51:29;;;;;;;7.80;2.88;;;;;;;17.74;100.00;101159.78;2614811;36;20062;-49
2022/09/07 04:54:00;;;;;;;3.47;2.40;;;;;;;17.76;100.00;101146.81;2615746;36;20034;-48
2022/09/07 04:56:29;;;;;;;3.90;2.38;;;;;;;17.72;100.00;101150.91;2615155;36;20054;-48
2022/09/07 04:58:57;;;;;;;7.22;2.90;;;;;;;17.75;100.00;101155.19;2616519;36;20440;-51
2022/09/07 05:01:28;;;;;;;3.50;2.80;;;;;;;17.69;100.00;101159.44;2616158;31;20034;-52
2022/09/07 05:03:56;;;;;;;5.50;3.22;;;;;;;17.65;100.00;101156.25;2615273;36;20055;-51
2022/09/07 05:06:25;;;;;;;4.73;3.07;;;;;;;17.57;100.00;101147.25;2615577;31;20523;-50
2022/09/07 05:08:55;;;;;;;4.03;2.72;;;;;;;17.69;100.00;101156.72;2615893;36;20618;-48
2022/09/07 05:11:25;;;;;;;4.85;2.72;;;;;;;17.64;100.00;101170.88;2616483;36;20038;-48
2022/09/07 05:13:53;;;;;;;5.43;3.00;;;;;;;17.73;100.00;101179.00;2616414;36;20455;-49
2022/09/07 05:16:24;;;;;;;5.50;3.08;;;;;;;17.66;100.00;101182.41;2615811;36;20031;-49
2022/09/07 05:18:57;;;;;;;6.55;2.88;;;;;;;17.65;100.00;101172.56;2615496;36;20034;-47
2022/09/07 05:21:27;;;;;;;3.67;2.72;;;;;;;17.63;100.00;101169.16;2616113;36;20023;-51
2022/09/07 05:23:57;;;;;;;6.18;2.85;;;;;;;17.57;100.00;101160.84;2616133;36;20039;-51
2022/09/07 05:26:28;;;;;;;5.25;2.72;;;;;;;17.54;100.00;101158.50;2615361;36;20046;-48
2022/09/07 05:28:56;;;;;;;5.03;3.08;;;;;;;17.41;100.00;101173.47;2615219;36;20022;-49
2022/09/07 05:31:25;;;;;;;4.32;3.10;;;;;;;17.54;100.00;101177.53;2613397;36;20581;-50
2022/09/07 05:33:57;;;;;;;5.93;3.40;;;;;;;17.55;100.00;101166.47;2615037;31;20334;-50
2022/09/07 05:36:27;;;;;;;5.55;2.97;;;;;;;17.56;100.00;101183.66;2615042;36;20034;-51
2022/09/07 05:38:57;;;;;;;5.07;3.20;;;;;;;17.57;100.00;101186.19;2614898;36;20073;-52
2022/09/07 05:41:27;;;;;;;5.25;3.40;;;;;;;17.43;100.00;101193.22;2616549;31;20410;-48
2022/09/07 05:43:57;;;;;;;5.68;3.53;;;;;;;17.47;100.00;101186.38;2616050;36;20431;-50
2022/09/07 05:46:26;;;;;;;8.52;3.97;;;;;;;17.45;100.00;101191.16;2614747;36;20543;-48
2022/09/07 05:48:59;;;;;;;4.63;3.28;;;;;;;17.55;100.00;101188.25;2615013;36;20034;-50
2022/09/07 05:51:27;;;;;;;7.90;3.88;;;;;;;17.62;100.00;101174.78;2615892;36;20065;-49
2022/09/07 05:53:56;;;;;;;5.78;3.55;;;;;;;17.77;100.00;101186.66;2615495;36;20058;-48
2022/09/07 05:56:24;;;;;;;10.10;3.63;;;;;;;17.68;100.00;101176.78;2614794;36;20049;-52
2022/09/07 05:58:52;;;;;;;6.40;3.88;;;;;;;17.65;100.00;101166.25;2615469;31;20669;-51
2022/09/07 06:01:21;;;;;;;5.72;4.00;;;;;;;17.51;100.00;101155.06;2614421;36;20041;-52
2022/09/07 06:03:49;;;;;;;6.93;4.37;;;;;;;17.49;100.00;101162.56;2616474;36;20038;-50
2022/09/07 06:06:20;;;;;;;6.10;3.78;;;;;;;17.58;100.00;101149.78;2615154;36;20334;-49
2022/09/07 06:08:51;;;;;;;7.22;3.97;;;;;;;17.50;100.00;101152.53;2615148;36;20026;-50
2022/09/07 06:11:21;;;;;;;6.63;4.05;;;;;;;17.48;100.00;101160.88;2614706;36;20029;-49
2022/09/07 06:13:50;;;;;;;6.50;4.43;;;;;;;17.37;100.00;101169.38;2633332;36;20057;-49
2022/09/07 06:16:19;;;;;;;;;;;;;;;17.48;100.00;101165.47;2614252;36;20027;-50
2022/09/07 06:18:49;;;;;;;9.10;5.10;;;;;;;17.52;100.00;101166.84;2612456;31;19950;-48
2022/09/07 06:21:22;;;;;;;6.45;4.20;;;;;;;17.54;100.00;101153.03;2613608;36;20038;-51
2022/09/07 06:23:51;;;;;;;7.00;4.57;;;;;;;17.58;100.00;101159.81;2614451;36;20075;-50
2022/09/07 06:26:20;;;;;;;8.50;4.72;;;;;;;17.54;100.00;101170.22;2614490;36;20031;-51
2022/09/07 06:28:49;;;;;;;;;;;;;;;17.54;100.00;101182.97;2615546;36;20073;-50
2022/09/07 06:31:19;;;;;;;9.40;5.13;;;;;;;17.42;100.00;101188.78;2614340;36;19951;-54
2022/09/07 06:33:49;;;;;;;7.72;5.18;;;;;;;17.33;100.00;101200.72;2614367;31;20444;-49
2022/09/07 06:36:21;;;;;;;9.35;5.20;;;;;;;17.34;100.00;101211.41;2613158;36;20041;-53
2022/09/07 06:38:50;;;;;;;10.10;5.68;;;;;;;17.36;100.00;101216.69;2614540;36;20039;-52
2022/09/07 06:41:21;;;;;;;8.15;5.82;;;;;;;17.48;100.00;101215.28;2610942;36;20023;-49
2022/09/07 06:43:50;;;;;;;9.63;6.38;;;;;;;17.55;100.00;101229.06;2614770;36;20038;-50
2022/09/07 06:46:19;;;;;;;11.48;6.13;;;;;;;17.60;100.00;101228.56;2605937;36;20039;-50
2022/09/07 06:48:47;;;;;;;11.75;7.07;;;;;;;17.46;100.00;101241.84;2613527;36;20034;-51
2022/09/07 06:51:21;;;;;;;12.00;7.37;;;;;;;17.46;100.00;101236.41;2614992;36;20509;-50
2022/09/07 06:53:50;;;;;;;9.02;6.50;;;;;;;17.65;100.00;101242.47;2615030;36;20085;-48
2022/09/07 06:56:20;;;;;;;18.05;8.13;;;;;;;17.66;100.00;101241.47;2614099;31;20057;-50
2022/09/07 06:58:48;;;;;;;11.50;7.20;;;;;;;17.88;100.00;101241.75;2615697;36;20057;-49
2022/09/07 07:01:20;;;;;;;12.55;7.68;;;;;;;17.96;100.00;101233.56;2615626;36;20023;-49
2022/09/07 07:03:49;;;;;;;14.18;7.95;;;;;;;18.11;100.00;101229.09;2612714;36;20551;-50
2022/09/07 07:06:20;;;;;;;12.52;7.93;;;;;;;17.93;100.00;101223.03;2614996;36;20023;-51
2022/09/07 07:08:49;;;;;;;11.88;7.68;;;;;;;17.80;100.00;101226.25;2615235;36;20030;-49
2022/09/07 07:11:19;;;;;;;12.05;7.40;;;;;;;18.01;100.00;101225.75;2615094;36;20034;-51
2022/09/07 07:13:48;;;;;;;15.13;8.82;;;;;;;17.98;100.00;101215.19;2614845;36;20042;-49
2022/09/07 07:16:18;;;;;;;12.07;7.90;;;;;;;17.79;100.00;101236.31;2614686;31;20547;-50
2022/09/07 07:18:51;;;;;;;15.68;10.27;;;;;;;17.93;100.00;101226.63;2613911;36;20034;-51
2022/09/07 07:21:21;;;;;;;15.32;9.63;;;;;;;18.05;100.00;101229.81;2611526;36;20030;-52
2022/09/07 07:23:51;;;;;;;15.23;10.38;;;;;;;17.99;100.00;101235.94;2612834;36;20039;-49
2022/09/07 07:26:22;;;;;;;15.57;10.30;;;;;;;18.47;100.00;101233.19;2613966;31;20039;-52
2022/09/07 07:28:53;;;;;;;14.95;10.88;;;;;;;18.17;100.00;101244.72;2614574;36;20039;-54
2022/09/07 07:31:22;;;;;;;20.33;11.18;;;;;;;18.00;100.00;101232.19;2615068;36;20033;-54
2022/09/07 07:34:21;;;;;;;15.88;10.23;;;;;;;18.11;100.00;101240.00;2615039;36;20039;-54
2022/09/07 07:36:52;;;;;;;18.95;10.63;;;;;;;18.13;100.00;101235.22;2614805;36;20039;-53
2022/09/07 07:39:20;;;;;;;17.88;11.13;;;;;;;17.99;100.00;101244.97;2614892;36;20463;-53
2022/09/07 07:41:49;;;;;;;16.90;9.87;;;;;;;17.89;100.00;101248.88;2612585;36;20108;-55
2022/09/07 07:44:17;;;;;;;18.87;12.03;;;;;;;17.78;100.00;101241.94;2610890;36;20038;-55
2022/09/07 07:46:48;;;;;;;16.97;11.67;;;;;;;17.80;100.00;101250.78;2607275;36;20046;-52
2022/09/07 07:49:18;;;;;;;18.70;13.57;;;;;;;17.86;100.00;101247.38;2613526;36;20034;-56
2022/09/07 07:51:46;;;;;;;17.67;12.32;;;;;;;18.04;100.00;101244.44;2614421;36;20142;-56
2022/09/07 07:54:17;;;;;;;20.13;13.33;;;;;;;18.35;100.00;101244.47;2613255;36;20046;-56
2022/09/07 07:56:45;;;;;;;20.20;13.60;;;;;;;18.51;100.00;101251.72;2608759;36;20065;-56
2022/09/07 07:59:13;;;;;;;16.67;12.60;;;;;;;18.37;100.00;101244.28;2615221;36;21149;-56
2022/09/07 08:01:42;;;;;;;18.90;12.80;;;;;;;18.44;100.00;101256.19;2615743;36;20407;-56
2022/09/07 08:04:10;;;;;;;16.27;11.57;;;;;;;18.66;100.00;101250.97;2615815;36;20307;-55
2022/09/07 08:06:43;;;;;;;18.37;11.43;;;;;;;18.50;100.00;101247.28;2615594;36;20023;-56
2022/09/07 08:09:13;;;;;;;16.48;11.52;;;;;;;18.72;100.00;101258.41;2612414;36;20026;-54
2022/09/07 08:11:44;;;;;;;14.68;11.35;;;;;;;18.82;100.00;101261.75;2613734;36;20061;-56
2022/09/07 08:14:12;;;;;;;18.63;11.35;;;;;;;18.96;100.00;101262.03;2614096;36;20030;-54
2022/09/07 08:16:40;;;;;;;15.20;11.23;;;;;;;18.78;100.00;101252.22;2615437;36;20420;-54
2022/09/07 08:19:11;;;;;;;17.40;11.53;;;;;;;18.83;100.00;101257.13;2614775;31;20034;-55
2022/09/07 08:21:39;;;;;;;17.90;12.15;;;;;;;19.12;100.00;101261.06;2615064;36;20668;-55
2022/09/07 08:24:10;;;;;;;15.25;10.93;;;;;;;19.24;100.00;101263.19;2613956;31;20038;-55
2022/09/07 08:26:38;;;;;;;14.05;10.50;;;;;;;19.33;100.00;101269.44;2614675;36;20034;-55
2022/09/07 08:29:09;;;;;;;15.50;10.50;;;;;;;19.49;100.00;101273.03;2615226;36;20062;-55
2022/09/07 08:31:38;;;;;;;17.08;11.05;;;;;;;19.88;100.00;101261.06;2615370;36;20042;-55
2022/09/07 08:34:06;;;;;;;15.13;11.03;;;;;;;19.64;100.00;101264.84;2614202;36;20436;-55
2022/09/07 08:36:35;;;;;;;15.65;10.45;;;;;;;19.60;100.00;101262.50;2613846;36;20314;-56
2022/09/07 08:39:03;;;;;;;13.52;11.40;;;;;;;19.86;100.00;101274.91;2611948;31;22278;-56
2022/09/07 08:42:03;;;;;;;14.60;9.90;;;;;;;20.06;100.00;101271.59;2612187;36;20030;-56
2022/09/07 08:44:39;;;;;;;13.35;9.60;;;;;;;20.26;100.00;101272.72;2611898;36;20022;-56
2022/09/07 08:47:16;;;;;;;14.85;10.55;;;;;;;19.95;100.00;101268.31;2613902;36;20070;-56
2022/09/07 08:49:50;;;;;;;10.70;8.65;;;;;;;20.40;100.00;101260.06;2613029;36;20059;-54
2022/09/07 08:52:23;;;;;;;13.95;9.75;;;;;;;20.18;100.00;101256.41;2610947;36;20069;-54
2022/09/07 08:55:01;;;;;;;13.23;8.88;;;;;;;20.37;100.00;101265.91;2611752;36;20038;-55
2022/09/07 08:57:33;;;;;;;15.70;9.55;;;;;;;20.48;100.00;101272.81;2604934;36;20038;-57
2022/09/07 09:00:09;;;;;;;14.63;9.80;;;;;;;20.47;100.00;101266.47;2604975;36;20022;-57
2022/09/07 09:02:37;;;;;;;14.00;9.98;;;;;;;20.56;100.00;101267.19;2613089;36;20129;-57
2022/09/07 09:05:07;;;;;;;12.25;9.35;;;;;;;20.29;100.00;101266.88;2612771;36;20081;-56
2022/09/07 09:07:46;;;;;;;13.93;9.43;;;;;;;20.11;100.00;101269.13;2612655;31;20489;-55
2022/09/07 09:10:21;;;;;;;11.85;9.52;;;;;;;20.29;100.00;101269.63;2611591;36;20034;-56
2022/09/07 09:13:06;;;;;;;11.80;9.32;;;;;;;20.30;100.00;101275.91;2610498;36;20088;-55
2022/09/07 09:15:51;;;;;;;12.60;9.70;;;;;;;20.51;100.00;101283.34;2610584;36;20435;-55
2022/09/07 09:18:31;;;;;;;12.40;9.60;;;;;;;20.64;100.00;101278.03;2611561;36;20034;-56
2022/09/07 09:21:00;;;;;;;15.60;9.85;;;;;;;20.56;100.00;101278.13;2610359;36;20038;-52
2022/09/07 09:23:32;;;;;;;12.93;9.70;;;;;;;20.63;100.00;101276.34;2611073;36;20038;-55
2022/09/07 09:26:06;;;;;;;12.23;9.48;;;;;;;20.98;100.00;101284.75;2612338;36;20419;-51
2022/09/07 09:28:34;;;;;;;11.77;9.80;;;;;;;21.35;100.00;101274.56;2610957;36;20061;-53
2022/09/07 09:31:05;;;;;;;14.43;9.02;;;;;;;21.34;100.00;101261.91;2611678;31;20053;-53
2022/09/07 09:33:33;;;;;;;10.15;8.30;;;;;;;21.83;100.00;101259.34;2612832;36;20067;-55
2022/09/07 09:36:03;;;;;;;8.98;7.75;;;;;;;22.10;100.00;101260.38;2613186;36;20061;-55
2022/09/07 09:38:34;;;;;;;12.00;9.60;;;;;;;21.34;100.00;101259.16;2611833;31;20042;-54
2022/09/07 09:41:06;;;;;;;12.90;10.00;;;;;;;21.13;100.00;101267.44;2612050;36;20041;-54
2022/09/07 09:43:44;;;;;;;11.90;9.35;;;;;;;21.47;100.00;101265.81;2612558;31;20042;-55
2022/09/07 09:46:24;;;;;;;10.60;8.30;;;;;;;21.82;100.00;101257.66;2629014;36;20034;-55
2022/09/07 09:48:57;;;;;;;11.50;8.02;;;;;;;22.12;100.00;101260.16;2611844;36;20042;-54
2022/09/07 09:51:27;;;;;;;12.05;8.80;;;;;;;22.24;100.00;101255.78;2615076;36;20485;-55
2022/09/07 09:54:01;;;;;;;10.63;8.95;;;;;;;21.88;100.00;101254.97;2614853;31;20474;-54
2022/09/07 09:56:43;;;;;;;12.57;8.52;;;;;;;22.27;100.00;101258.13;2615596;36;20069;-55
2022/09/07 09:59:22;;;;;;;9.55;7.75;;;;;;;22.39;100.00;101248.31;2607113;36;20038;-54
2022/09/07 10:01:53;;;;;;;;;;;;;;;21.88;100.00;101251.38;2608053;36;20142;-55
2022/09/07 10:04:32;;;;;;;10.18;7.88;;;;;;;21.79;100.00;101255.31;2615517;36;19954;-54
2022/09/07 10:07:08;;;;;;;8.70;6.55;;;;;;;22.34;100.00;101250.78;2614863;36;20041;-55
2022/09/07 10:09:39;;;;;;;10.20;7.78;;;;;;;22.15;100.00;101248.78;2614160;31;20069;-56
2022/09/07 10:12:09;;;;;;;11.38;8.88;;;;;;;22.15;100.00;101251.53;2613965;36;20022;-55
2022/09/07 10:14:43;;;;;;;11.63;8.88;;;;;;;22.20;100.00;101254.50;2614523;36;20057;-55
2022/09/07 10:17:27;;;;;;;9.30;8.30;;;;;;;22.36;100.00;101256.94;2615139;36;20027;-56
2022/09/07 10:20:00;;;;;;;10.90;8.10;;;;;;;22.67;100.00;101247.34;2613228;36;20042;-56
2022/09/07 10:22:34;;;;;;;10.43;8.50;;;;;;;22.87;100.00;101238.28;2610077;36;20038;-56
2022/09/07 10:25:04;;;;;;;8.32;7.40;;;;;;;22.87;100.00;101238.28;2612033;36;20072;-55
2022/09/07 10:27:35;;;;;;;9.68;7.75;;;;;;;22.83;100.00;101235.09;2612916;36;20046;-56
2022/09/07 10:30:10;;;;;;;8.27;7.22;;;;;;;22.50;100.00;101237.78;2612365;36;20034;-56
2022/09/07 10:32:53;;;;;;;8.25;6.65;;;;;;;22.81;100.00;101239.13;2611237;36;20025;-56
2022/09/07 10:35:28;;;;;;;10.85;7.50;;;;;;;23.05;100.00;101234.94;2610623;36;20038;-56
2022/09/07 10:38:06;;;;;;;10.25;8.60;;;;;;;23.23;100.00;101231.59;2612574;36;20034;-57
2022/09/07 10:40:37;;;;;;;10.52;7.90;;;;;;;23.44;100.00;101242.38;2610902;36;20046;-57
2022/09/07 10:43:19;;;;;;;8.43;6.88;;;;;;;23.51;100.00;101238.75;2610740;36;20037;-56
2022/09/07 10:46:03;;;;;;;10.13;8.15;;;;;;;23.13;100.00;101244.88;2612049;36;20046;-55
2022/09/07 10:48:43;;;;;;;10.30;7.50;;;;;;;22.58;100.00;101240.31;2611190;36;20069;-55
2022/09/07 10:51:18;;;;;;;7.95;6.97;;;;;;;22.88;100.00;101229.03;2612643;36;20030;-56
2022/09/07 10:53:54;;;;;;;10.80;7.50;;;;;;;23.07;100.00;101235.56;2613186;36;20098;-56
2022/09/07 10:56:27;;;;;;;9.45;7.30;;;;;;;23.09;100.00;101237.03;2614424;36;20061;-55
2022/09/07 10:59:07;;;;;;;9.70;7.93;;;;;;;22.98;100.00;101225.84;2615132;36;20038;-56
2022/09/07 11:01:48;;;;;;;7.68;6.80;;;;;;;23.18;100.00;101228.66;2603924;36;20049;-55
2022/09/07 11:04:54;;;;;;;8.73;5.88;;;;;;;23.14;100.00;101230.13;2603952;36;20030;-54
2022/09/07 11:07:51;;;;;;;9.23;5.55;;;;;;;23.50;100.00;101223.31;2615348;36;20034;-55
2022/09/07 11:10:29;;;;;;;9.27;6.50;;;;;;;23.52;100.00;101229.47;2614682;36;20396;-54
2022/09/07 11:13:01;;;;;;;7.22;6.07;;;;;;;23.48;100.00;101223.53;2613365;36;20122;-54
2022/09/07 11:15:33;;;;;;;6.10;5.00;;;;;;;23.17;100.00;101219.53;2614292;36;20532;-56
2022/09/07 11:18:08;;;;;;;7.30;5.47;;;;;;;23.48;100.00;101228.19;2614316;36;20039;-56
2022/09/07 11:20:44;;;;;;;7.95;5.43;;;;;;;23.58;100.00;101226.69;2614823;36;20138;-55
2022/09/07 11:23:18;;;;;;;6.18;4.45;;;;;;;23.90;100.00;101213.13;2614941;36;20712;-55
2022/09/07 11:25:58;;;;;;;6.00;5.28;;;;;;;23.68;100.00;101223.53;2615018;36;20482;-55
2022/09/07 11:28:30;;;;;;;7.20;4.45;;;;;;;23.68;100.00;101223.53;2614776;31;20039;-55
2022/09/07 11:31:04;;;;;;;7.10;4.93;;;;;;;24.07;100.00;101215.41;2615425;36;20030;-55
2022/09/07 11:33:36;;;;;;;7.70;4.18;;;;;;;24.69;100.00;101199.25;2615473;36;20536;-55
2022/09/07 11:36:12;;;;;;;6.20;4.15;;;;;;;24.97;100.00;101206.25;2615829;36;20590;-55
2022/09/07 11:38:44;;;;;;;6.50;4.28;;;;;;;25.10;100.00;101203.41;2615572;36;20042;-55